Time;durP1;ratioP1;P1;durP2;ratioP2;P2;SDS_P1;SDS_P2;PMS_P1;PMS_P2;Temp;Humidity;BMP_temperature;BMP_pressure;BME280_temperature;BME280_humidity;BME280_pressure;Samples;Min_cycle;Max_cycle;Signal;HPM_P1;HPM_P2
2023/10/21 00:00:50;;;;;;;1.77;1.33;;;;;;;23.06;46.69;98025.31;4477161;32;34975;-80
2023/10/21 00:03:18;;;;;;;1.77;0.82;;;;;;;23.17;46.38;98021.31;4463266;32;34125;-80
2023/10/21 00:05:46;;;;;;;1.17;0.73;;;;;;;23.27;46.00;98015.59;4461201;32;32828;-80
2023/10/21 00:08:14;;;;;;;7.18;4.20;;;;;;;23.10;46.24;98021.22;4472725;32;32838;-80
2023/10/21 00:10:42;;;;;;;2.67;0.70;;;;;;;23.33;45.90;98020.22;4474215;32;34151;-82
2023/10/21 00:13:10;;;;;;;1.85;1.05;;;;;;;23.21;46.16;98028.78;4462140;32;33591;-82
2023/10/21 00:15:39;;;;;;;2.75;1.45;;;;;;;23.22;46.44;98025.09;4462862;32;34236;-82
2023/10/21 00:18:07;;;;;;;2.00;1.55;;;;;;;23.31;45.80;98028.50;4475873;32;33688;-82
2023/10/21 00:20:35;;;;;;;0.65;0.62;;;;;;;23.20;46.06;98031.66;4462818;32;34155;-82
2023/10/21 00:23:03;;;;;;;0.35;0.20;;;;;;;23.07;46.35;98048.50;4462502;32;32538;-81
2023/10/21 00:25:30;;;;;;;4.95;1.33;;;;;;;23.08;46.41;98042.13;4460126;32;33926;-82
2023/10/21 00:27:58;;;;;;;19.77;2.08;;;;;;;23.23;46.04;98032.13;4477140;32;34026;-81
2023/10/21 00:30:26;;;;;;;1.40;1.30;;;;;;;23.06;46.26;98028.00;4459635;32;34465;-81
2023/10/21 00:32:54;;;;;;;5.53;0.73;;;;;;;23.18;45.98;98031.03;4461553;32;33306;-81
2023/10/21 00:35:22;;;;;;;1.65;1.27;;;;;;;23.29;45.83;98035.91;4475863;32;34573;-80
2023/10/21 00:37:50;;;;;;;1.75;1.12;;;;;;;23.44;45.35;98027.78;4472554;32;33419;-81
2023/10/21 00:40:18;;;;;;;1.15;1.05;;;;;;;23.48;45.26;98026.37;4460373;32;34123;-81
2023/10/21 00:42:45;;;;;;;9.25;2.45;;;;;;;23.47;45.18;98035.47;4473517;32;32580;-81
2023/10/21 00:45:13;;;;;;;1.45;1.35;;;;;;;23.37;46.14;98051.97;4461521;32;34481;-80
2023/10/21 00:47:41;;;;;;;2.90;1.12;;;;;;;23.46;45.63;98048.13;4476549;32;33666;-80
2023/10/21 00:50:09;;;;;;;4.00;1.75;;;;;;;23.47;45.51;98048.94;4460580;32;34284;-81
2023/10/21 00:52:44;;;;;;;2.78;1.08;;;;;;;23.64;45.14;98053.09;4460271;32;33548;-81
2023/10/21 00:55:12;;;;;;;0.82;0.77;;;;;;;23.54;45.67;98055.22;4475046;32;34605;-80
2023/10/21 00:57:40;;;;;;;4.47;0.98;;;;;;;23.44;46.10;98060.09;4475337;32;34658;-80
2023/10/21 01:00:11;;;;;;;1.92;1.35;;;;;;;23.32;46.16;98058.94;4464138;32;33486;-81
2023/10/21 01:02:42;;;;;;;1.83;1.73;;;;;;;23.34;46.20;98063.09;4461827;32;33016;-81
2023/10/21 01:05:10;;;;;;;3.50;1.20;;;;;;;23.41;45.97;98065.87;4475828;32;33876;-81
2023/10/21 01:07:42;;;;;;;1.37;1.20;;;;;;;23.45;45.71;98062.63;4475029;32;34473;-81
2023/10/21 01:10:11;;;;;;;1.83;1.40;;;;;;;23.39;45.96;98062.53;4463459;32;32744;-81
2023/10/21 01:12:39;;;;;;;1.58;1.48;;;;;;;23.35;46.23;98064.75;4463525;32;32654;-81
2023/10/21 01:15:07;;;;;;;5.82;1.80;;;;;;;23.28;46.22;98061.19;4459133;32;34263;-81
2023/10/21 01:17:35;;;;;;;3.05;1.55;;;;;;;23.32;46.30;98072.41;4467368;32;34825;-81
2023/10/21 01:20:06;;;;;;;2.60;1.55;;;;;;;23.22;46.41;98062.78;4460378;32;33447;-82
2023/10/21 01:22:33;;;;;;;0.68;0.68;;;;;;;23.23;46.54;98053.69;4467817;32;33613;-82
2023/10/21 01:25:04;;;;;;;0.68;0.68;;;;;;;23.28;46.37;98058.50;4448367;32;32715;-81
2023/10/21 01:27:31;;;;;;;5.15;1.27;;;;;;;23.23;46.80;98069.00;4455662;32;33512;-81
2023/10/21 01:29:59;;;;;;;4.18;3.08;;;;;;;23.21;46.34;98074.56;4459792;32;33490;-82
2023/10/21 01:32:27;;;;;;;0.20;0.20;;;;;;;23.23;46.01;98071.69;4461963;32;34157;-81
2023/10/21 01:34:55;;;;;;;2.33;2.10;;;;;;;23.43;45.48;98069.22;4460080;32;32872;-81
2023/10/21 01:37:22;;;;;;;1.12;0.95;;;;;;;23.17;46.35;98080.53;4462253;32;32994;-81
2023/10/21 01:39:50;;;;;;;2.97;1.60;;;;;;;23.17;46.36;98075.16;4475267;32;33817;-82
2023/10/21 01:42:18;;;;;;;1.98;1.25;;;;;;;23.21;46.01;98071.84;4475333;32;33609;-81
2023/10/21 01:44:45;;;;;;;2.08;1.48;;;;;;;23.25;45.96;98069.62;4457815;32;33442;-81
2023/10/21 01:47:13;;;;;;;7.93;1.15;;;;;;;23.27;45.51;98064.06;4460970;32;33454;-81
2023/10/21 01:49:41;;;;;;;3.45;1.85;;;;;;;23.29;45.73;98062.00;4472440;32;33600;-81
2023/10/21 01:52:09;;;;;;;1.67;1.58;;;;;;;22.97;46.37;98064.13;4460607;32;33540;-82
2023/10/21 01:54:37;;;;;;;3.60;2.03;;;;;;;23.11;45.86;98068.62;4474382;32;33823;-80
2023/10/21 01:57:04;;;;;;;1.52;1.05;;;;;;;23.23;45.66;98085.97;4477145;32;33726;-81
2023/10/21 01:59:32;;;;;;;1.00;0.82;;;;;;;23.25;45.64;98077.72;4475400;32;33741;-81
2023/10/21 02:02:00;;;;;;;0.93;0.62;;;;;;;23.05;45.86;98079.34;4462501;32;34347;-81
2023/10/21 02:04:29;;;;;;;1.45;1.35;;;;;;;23.29;45.61;98083.56;4473618;32;34354;-81
2023/10/21 02:06:56;;;;;;;4.37;2.25;;;;;;;23.34;45.65;98091.91;4462426;32;34522;-80
2023/10/21 02:09:24;;;;;;;9.13;1.35;;;;;;;23.42;45.35;98099.88;4472780;32;34085;-80
2023/10/21 02:11:56;;;;;;;5.15;1.10;;;;;;;23.37;45.07;98108.53;4448673;32;32509;-81
2023/10/21 02:14:23;;;;;;;0.50;0.50;;;;;;;23.48;45.31;98109.88;4460200;32;34628;-82
2023/10/21 02:16:53;;;;;;;4.70;0.70;;;;;;;23.32;45.90;98110.94;4474831;32;34778;-81
2023/10/21 02:19:20;;;;;;;3.50;1.45;;;;;;;23.40;45.40;98108.13;4461770;32;34185;-80
2023/10/21 02:21:48;;;;;;;3.58;1.90;;;;;;;23.29;45.72;98126.66;4450828;32;32649;-81
2023/10/21 02:24:16;;;;;;;1.35;1.27;;;;;;;23.27;45.71;98123.31;4460772;32;32584;-81
2023/10/21 02:26:44;;;;;;;3.67;1.50;;;;;;;23.35;45.66;98144.72;4460424;32;34373;-81
2023/10/21 02:29:11;;;;;;;9.13;1.48;;;;;;;23.25;46.06;98150.41;4461527;32;34446;-81
2023/10/21 02:31:40;;;;;;;3.30;1.58;;;;;;;23.35;45.58;98142.88;4470861;32;33646;-81
2023/10/21 02:34:08;;;;;;;1.60;1.00;;;;;;;23.24;46.11;98146.88;4459990;32;35561;-80
2023/10/21 02:36:36;;;;;;;5.15;2.92;;;;;;;23.20;46.16;98142.91;4473545;32;34599;-82
2023/10/21 02:39:07;;;;;;;4.87;2.37;;;;;;;23.22;46.37;98140.87;4461271;32;34753;-81
2023/10/21 02:41:35;;;;;;;1.85;0.93;;;;;;;22.90;47.02;98130.50;4464027;32;32806;-82
2023/10/21 02:44:03;;;;;;;1.02;0.95;;;;;;;23.00;46.89;98131.88;4475204;32;33474;-82
2023/10/21 02:46:31;;;;;;;4.37;1.60;;;;;;;22.94;46.77;98137.19;4460537;32;33914;-81
2023/10/21 02:48:58;;;;;;;4.35;1.90;;;;;;;23.18;46.31;98125.28;4473720;32;33441;-82
2023/10/21 02:51:26;;;;;;;1.55;0.62;;;;;;;23.33;46.46;98133.31;4473104;32;33319;-82
2023/10/21 02:53:54;;;;;;;0.88;0.88;;;;;;;23.26;46.43;98127.84;4459298;32;32913;-81
2023/10/21 02:56:22;;;;;;;4.57;2.25;;;;;;;23.22;46.62;98148.94;4474112;32;34011;-82
2023/10/21 02:58:49;;;;;;;0.43;0.40;;;;;;;23.23;46.66;98131.75;4461447;32;33696;-81
2023/10/21 03:01:20;;;;;;;3.15;0.95;;;;;;;23.21;46.41;98139.19;4445157;32;33469;-81
2023/10/21 03:03:48;;;;;;;0.82;0.77;;;;;;;23.19;46.60;98143.09;4448400;32;33926;-81
2023/10/21 03:06:17;;;;;;;5.05;1.58;;;;;;;22.98;47.17;98147.38;4461124;32;33674;-82
2023/10/21 03:08:48;;;;;;;0.52;0.52;;;;;;;22.99;47.63;98159.00;4458093;32;34770;-82
2023/10/21 03:11:15;;;;;;;0.50;0.40;;;;;;;22.97;47.47;98161.00;4463349;32;34133;-82
2023/10/21 03:13:43;;;;;;;7.22;3.00;;;;;;;22.98;47.54;98165.41;4461846;32;34537;-82
2023/10/21 03:16:13;;;;;;;0.70;0.70;;;;;;;23.00;47.53;98161.47;4473326;32;33926;-82
2023/10/21 03:18:41;;;;;;;1.62;1.35;;;;;;;22.87;48.06;98168.50;4462623;32;33955;-81
2023/10/21 03:21:09;;;;;;;1.33;1.23;;;;;;;22.86;47.99;98170.38;4458536;32;34124;-81
2023/10/21 03:23:38;;;;;;;4.85;1.87;;;;;;;22.92;47.76;98175.03;4446778;32;32877;-81
2023/10/21 03:26:07;;;;;;;2.22;1.00;;;;;;;22.96;47.60;98164.72;4462138;32;32884;-81
2023/10/21 03:28:35;;;;;;;1.40;1.02;;;;;;;23.04;47.46;98166.50;4455882;32;33996;-82
2023/10/21 03:31:06;;;;;;;1.85;1.73;;;;;;;23.09;47.21;98164.91;4460984;32;32599;-82
2023/10/21 03:33:33;;;;;;;14.35;1.58;;;;;;;22.95;47.61;98163.91;4458753;32;33034;-81
2023/10/21 03:36:04;;;;;;;7.22;1.20;;;;;;;23.08;47.58;98173.19;4474423;32;34742;-81
2023/10/21 03:38:32;;;;;;;4.87;3.10;;;;;;;23.03;47.96;98167.53;4461686;32;34017;-81
2023/10/21 03:41:02;;;;;;;7.32;1.15;;;;;;;22.74;48.82;98164.63;4475246;32;34156;-81
2023/10/21 03:43:31;;;;;;;7.87;1.75;;;;;;;22.71;49.10;98166.84;4461165;32;32708;-81
2023/10/21 03:46:02;;;;;;;0.95;0.95;;;;;;;22.78;48.90;98175.00;4471560;32;33661;-81
2023/10/21 03:48:31;;;;;;;2.90;0.62;;;;;;;22.87;48.53;98184.66;4447437;32;33133;-81
2023/10/21 03:51:04;;;;;;;4.05;1.62;;;;;;;23.02;48.24;98182.81;4454805;32;192195;-82
2023/10/21 03:53:33;;;;;;;1.48;1.37;;;;;;;23.20;47.78;98185.97;4471422;32;33697;-81
2023/10/21 03:56:01;;;;;;;1.45;1.08;;;;;;;22.91;48.82;98202.13;4467390;32;33953;-82
2023/10/21 03:58:29;;;;;;;7.78;1.55;;;;;;;22.97;48.79;98209.47;4475757;32;34412;-81
2023/10/21 04:00:57;;;;;;;3.30;1.60;;;;;;;23.01;48.56;98226.91;4449595;32;32359;-81
2023/10/21 04:03:26;;;;;;;3.10;1.65;;;;;;;22.94;48.61;98228.69;4472797;32;34562;-81
2023/10/21 04:05:55;;;;;;;7.50;2.55;;;;;;;23.03;48.22;98238.34;4460120;32;33742;-81
2023/10/21 04:08:24;;;;;;;2.33;1.20;;;;;;;23.09;47.80;98240.31;4455989;32;32910;-81
2023/10/21 04:10:53;;;;;;;0.30;0.30;;;;;;;23.14;47.73;98247.81;4460198;32;33283;-81
2023/10/21 04:13:20;;;;;;;0.95;0.50;;;;;;;23.19;47.66;98238.16;4460152;32;34519;-81
2023/10/21 04:15:49;;;;;;;3.00;1.90;;;;;;;22.96;48.49;98242.78;4459431;32;33786;-81
2023/10/21 04:18:17;;;;;;;3.20;2.03;;;;;;;22.75;49.45;98244.31;4461051;32;34164;-81
2023/10/21 04:20:45;;;;;;;7.60;0.47;;;;;;;22.80;49.58;98245.63;4458328;32;34137;-81
2023/10/21 04:23:13;;;;;;;0.30;0.20;;;;;;;22.82;49.67;98257.84;4467006;32;34622;-81
2023/10/21 04:25:41;;;;;;;10.18;1.55;;;;;;;22.65;51.47;98264.44;4473151;32;34050;-81
2023/10/21 04:28:10;;;;;;;4.32;1.87;;;;;;;22.42;53.42;98272.50;4457295;32;34774;-81
2023/10/21 04:30:38;;;;;;;8.07;2.67;;;;;;;22.50;53.42;98277.78;4473449;32;33267;-81
2023/10/21 04:33:06;;;;;;;0.88;0.75;;;;;;;22.63;53.91;98267.28;4472986;32;34352;-81
2023/10/21 04:35:34;;;;;;;11.50;0.52;;;;;;;22.18;55.51;98285.09;4473839;32;34657;-81
2023/10/21 04:38:02;;;;;;;0.90;0.90;;;;;;;22.20;55.94;98282.22;4471339;32;33674;-82
2023/10/21 04:40:30;;;;;;;2.00;1.77;;;;;;;22.45;55.13;98285.56;4459799;32;32968;-81
2023/10/21 04:42:57;;;;;;;0.28;0.28;;;;;;;22.24;56.19;98300.50;4459165;32;32602;-82
2023/10/21 04:45:25;;;;;;;4.97;2.42;;;;;;;22.59;55.49;98302.78;4475953;32;33967;-81
2023/10/21 04:47:53;;;;;;;0.45;0.45;;;;;;;22.21;56.60;98313.47;4460985;32;34070;-81
2023/10/21 04:50:20;;;;;;;1.23;0.90;;;;;;;21.97;58.19;98311.72;4474481;32;33304;-81
2023/10/21 04:52:48;;;;;;;0.65;0.65;;;;;;;21.73;59.02;98321.56;4476411;32;33620;-81
2023/10/21 04:55:16;;;;;;;21.65;1.50;;;;;;;22.08;58.77;98330.16;4475465;32;33769;-79
2023/10/21 04:57:43;;;;;;;0.25;0.25;;;;;;;21.71;60.20;98331.66;4454707;32;33049;-80
2023/10/21 05:00:14;;;;;;;1.08;0.55;;;;;;;21.66;60.77;98349.31;4474737;32;33541;-80
2023/10/21 05:02:42;;;;;;;2.15;2.00;;;;;;;21.50;62.24;98360.91;4463501;32;33957;-80
2023/10/21 05:05:12;;;;;;;5.37;0.93;;;;;;;21.33;63.68;98359.28;4472906;32;33838;-80
2023/10/21 05:07:43;;;;;;;1.35;1.00;;;;;;;21.49;63.67;98353.88;4462450;32;34425;-80
2023/10/21 05:10:11;;;;;;;0.82;0.40;;;;;;;21.13;64.91;98351.56;4472932;32;33222;-80
2023/10/21 05:12:39;;;;;;;0.05;0.05;;;;;;;20.78;66.42;98349.22;4472495;32;33411;-80
2023/10/21 05:15:07;;;;;;;1.55;0.37;;;;;;;20.97;65.56;98328.25;4462041;32;34076;-80
2023/10/21 05:17:35;;;;;;;0.20;0.20;;;;;;;21.21;65.08;98324.69;4462344;32;34117;-79
2023/10/21 05:20:03;;;;;;;0.73;0.52;;;;;;;21.03;66.16;98320.53;4474356;32;33466;-80
2023/10/21 05:22:31;;;;;;;0.13;0.13;;;;;;;21.28;64.85;98313.28;4449542;32;31993;-82
2023/10/21 05:24:59;;;;;;;1.08;0.85;;;;;;;21.20;65.90;98325.72;4473802;32;33525;-81
2023/10/21 05:27:27;;;;;;;0.20;0.20;;;;;;;20.87;66.90;98332.13;4450050;32;32842;-81
2023/10/21 05:29:55;;;;;;;5.03;0.80;;;;;;;21.02;65.93;98306.28;4460485;32;32796;-82
2023/10/21 05:32:23;;;;;;;2.35;0.52;;;;;;;20.87;66.76;98302.59;4461715;32;32787;-82
2023/10/21 05:34:50;;;;;;;5.78;1.05;;;;;;;20.76;67.27;98313.69;4464553;32;33938;-82
2023/10/21 05:37:18;;;;;;;0.28;0.17;;;;;;;20.70;67.02;98313.34;4472970;32;34109;-82
2023/10/21 05:39:46;;;;;;;0.05;0.05;;;;;;;21.16;65.45;98305.56;4461113;32;33959;-82
2023/10/21 05:42:19;;;;;;;1.37;0.98;;;;;;;21.21;64.87;98316.63;4449049;32;33888;-81
2023/10/21 05:44:48;;;;;;;1.17;1.08;;;;;;;21.08;65.79;98308.31;4475588;32;34709;-82
2023/10/21 05:47:19;;;;;;;0.22;0.22;;;;;;;20.81;66.52;98306.81;4460276;32;33811;-81
2023/10/21 05:49:50;;;;;;;2.05;1.90;;;;;;;21.06;65.82;98328.25;4460546;32;32867;-81
2023/10/21 05:52:18;;;;;;;6.00;0.32;;;;;;;20.98;65.97;98339.81;4461685;32;32754;-82
2023/10/21 05:54:46;;;;;;;0.60;0.52;;;;;;;20.95;66.13;98350.91;4476173;32;33990;-82
2023/10/21 05:57:14;;;;;;;6.65;1.40;;;;;;;20.98;66.00;98355.91;4469752;32;34169;-81
2023/10/21 05:59:43;;;;;;;0.55;0.55;;;;;;;21.11;65.90;98353.56;4459751;32;33001;-81
2023/10/21 06:02:11;;;;;;;0.32;0.32;;;;;;;21.16;65.35;98375.38;4459291;32;34598;-82
2023/10/21 06:04:39;;;;;;;0.52;0.52;;;;;;;21.42;64.56;98375.22;4467671;32;34449;-82
2023/10/21 06:07:07;;;;;;;2.15;0.62;;;;;;;21.43;64.30;98392.16;4463321;32;33500;-82
2023/10/21 06:09:35;;;;;;;0.55;0.55;;;;;;;21.38;64.61;98421.38;4460901;32;33225;-82
2023/10/21 06:12:03;;;;;;;1.55;0.82;;;;;;;21.37;64.69;98419.69;4463924;32;34145;-82
2023/10/21 06:14:31;;;;;;;3.30;2.30;;;;;;;21.37;64.59;98425.06;4462007;32;34646;-81
2023/10/21 06:16:59;;;;;;;0.47;0.37;;;;;;;21.44;64.23;98443.00;4476091;32;34232;-80
2023/10/21 06:19:27;;;;;;;7.12;0.60;;;;;;;21.30;64.98;98450.88;4474066;32;32847;-81
2023/10/21 06:21:55;;;;;;;0.20;0.20;;;;;;;21.28;65.08;98443.00;4475281;32;33848;-81
2023/10/21 06:24:24;;;;;;;0.15;0.15;;;;;;;21.18;65.25;98437.78;4457860;32;33664;-81
2023/10/21 06:26:52;;;;;;;0.75;0.65;;;;;;;21.10;65.52;98451.19;4472975;32;34751;-81
2023/10/21 06:29:20;;;;;;;16.83;1.02;;;;;;;21.14;65.27;98452.53;4472364;32;32153;-81
2023/10/21 06:31:47;;;;;;;0.17;0.15;;;;;;;21.03;65.52;98465.44;4471733;32;31995;-82
2023/10/21 06:34:15;;;;;;;0.00;0.00;;;;;;;21.01;65.49;98462.94;4470780;32;32085;-81
2023/10/21 06:36:43;;;;;;;0.10;0.10;;;;;;;20.71;66.05;98475.94;4476585;32;34716;-81
2023/10/21 06:39:10;;;;;;;0.13;0.13;;;;;;;20.71;66.19;98484.00;4471732;32;33854;-81
2023/10/21 06:41:39;;;;;;;0.73;0.70;;;;;;;21.11;64.53;98485.06;4470040;32;34293;-81
2023/10/21 06:44:08;;;;;;;0.15;0.08;;;;;;;20.91;65.23;98489.06;4460728;32;33060;-81
2023/10/21 06:46:35;;;;;;;0.30;0.30;;;;;;;20.90;65.05;98487.41;4472229;32;31809;-81
2023/10/21 06:49:04;;;;;;;0.03;0.03;;;;;;;20.84;65.75;98490.72;4458815;32;32503;-82
2023/10/21 06:51:31;;;;;;;2.12;0.57;;;;;;;20.90;65.55;98492.78;4459879;32;33896;-81
2023/10/21 06:54:00;;;;;;;0.52;0.52;;;;;;;21.35;63.90;98491.50;4469627;32;34005;-81
2023/10/21 06:56:28;;;;;;;0.98;0.60;;;;;;;20.94;65.19;98505.69;4447006;32;32676;-81
2023/10/21 06:58:55;;;;;;;0.30;0.30;;;;;;;20.79;66.22;98511.84;4471686;32;34348;-81
2023/10/21 07:01:24;;;;;;;1.95;0.98;;;;;;;20.90;65.86;98519.59;4459509;32;33702;-81
2023/10/21 07:03:53;;;;;;;3.83;1.80;;;;;;;20.81;66.13;98510.69;4458004;32;34016;-82
2023/10/21 07:06:21;;;;;;;0.10;0.10;;;;;;;20.63;66.45;98516.16;4460422;32;33920;-82
2023/10/21 07:08:48;;;;;;;0.00;0.00;;;;;;;20.76;66.36;98517.53;4449746;32;33571;-82
2023/10/21 07:11:16;;;;;;;0.20;0.20;;;;;;;20.82;65.87;98507.00;4458329;32;31908;-81
2023/10/21 07:13:44;;;;;;;0.08;0.08;;;;;;;20.85;65.38;98511.22;4457727;32;31655;-82
2023/10/21 07:16:11;;;;;;;0.45;0.45;;;;;;;20.71;65.73;98513.50;4472909;32;34869;-82
2023/10/21 07:18:40;;;;;;;1.95;1.33;;;;;;;20.70;66.10;98511.84;4457318;32;33602;-81
2023/10/21 07:21:08;;;;;;;1.65;0.75;;;;;;;20.53;66.30;98519.97;4458176;32;33911;-82
2023/10/21 07:23:36;;;;;;;0.10;0.10;;;;;;;20.61;65.97;98515.50;4470589;32;33990;-82
2023/10/21 07:26:04;;;;;;;0.65;0.52;;;;;;;20.34;67.22;98518.34;4469580;32;34161;-82
2023/10/21 07:28:33;;;;;;;1.02;0.40;;;;;;;20.44;66.73;98537.84;4470092;32;33561;-82
2023/10/21 07:31:01;;;;;;;0.85;0.85;;;;;;;20.73;65.54;98550.06;4461975;32;34628;-82
2023/10/21 07:33:29;;;;;;;0.05;0.05;;;;;;;20.55;66.33;98564.38;4457364;32;33109;-81
2023/10/21 07:35:57;;;;;;;0.55;0.32;;;;;;;20.61;65.91;98566.44;4458659;32;33763;-80
2023/10/21 07:38:31;;;;;;;0.85;0.85;;;;;;;20.62;65.80;98560.06;4457274;32;31852;-81
2023/10/21 07:41:12;;;;;;;0.45;0.45;;;;;;;20.58;65.62;98558.72;4449257;32;30755;-81
2023/10/21 07:43:42;;;;;;;1.30;0.95;;;;;;;20.31;66.64;98573.09;4480289;31;31705;-81
2023/10/21 07:46:10;;;;;;;1.27;1.15;;;;;;;20.38;66.47;98559.94;4467835;32;33469;-81
2023/10/21 07:48:39;;;;;;;0.50;0.50;;;;;;;20.49;66.02;98570.41;4466935;32;32392;-81
2023/10/21 07:51:07;;;;;;;0.20;0.17;;;;;;;20.40;66.27;98587.41;4467784;32;34385;-81
2023/10/21 07:53:35;;;;;;;0.30;0.30;;;;;;;20.42;66.19;98591.63;4456960;32;32122;-81
2023/10/21 07:56:03;;;;;;;0.30;0.30;;;;;;;20.13;66.76;98591.94;4472141;32;34160;-81
2023/10/21 07:58:31;;;;;;;0.10;0.10;;;;;;;20.38;66.08;98594.78;4469063;32;33158;-81
2023/10/21 08:01:00;;;;;;;5.07;0.73;;;;;;;20.18;66.67;98584.28;4457638;32;34286;-81
2023/10/21 08:03:28;;;;;;;0.65;0.30;;;;;;;20.08;67.03;98598.75;4457429;32;33742;-83
2023/10/21 08:05:56;;;;;;;0.10;0.00;;;;;;;20.32;66.62;98600.75;4458938;32;32730;-82
2023/10/21 08:08:25;;;;;;;0.10;0.10;;;;;;;20.48;65.51;98608.09;4459165;32;33662;-82
2023/10/21 08:10:59;;;;;;;0.10;0.10;;;;;;;20.33;66.46;98614.00;4466477;32;33757;-82
2023/10/21 08:13:26;;;;;;;3.15;1.23;;;;;;;20.26;66.48;98612.13;4456345;32;33047;-82
2023/10/21 08:15:54;;;;;;;0.30;0.30;;;;;;;20.35;66.32;98636.13;4455960;32;33908;-83
2023/10/21 08:18:22;;;;;;;0.25;0.25;;;;;;;20.42;66.13;98644.41;4466985;32;34181;-82
2023/10/21 08:20:50;;;;;;;0.40;0.28;;;;;;;20.42;66.30;98641.72;4469367;32;33377;-83
2023/10/21 08:23:18;;;;;;;1.10;0.93;;;;;;;20.59;65.72;98640.84;4458700;32;34021;-83
2023/10/21 08:25:46;;;;;;;0.98;0.30;;;;;;;20.53;66.00;98657.56;4445998;32;34484;-82
2023/10/21 08:28:13;;;;;;;0.65;0.40;;;;;;;20.45;66.18;98644.91;4470025;32;31832;-83
2023/10/21 08:30:41;;;;;;;0.52;0.52;;;;;;;20.40;66.12;98654.44;4460140;32;33965;-83
2023/10/21 08:33:09;;;;;;;0.20;0.20;;;;;;;20.82;64.85;98661.75;4461611;32;33281;-82
2023/10/21 08:35:37;;;;;;;1.00;0.37;;;;;;;20.82;65.13;98659.06;4458802;32;31536;-83
2023/10/21 08:38:30;;;;;;;5.18;0.17;;;;;;;20.78;65.30;98660.37;4471195;31;32953;-83
2023/10/21 08:41:42;;;;;;;0.00;0.00;;;;;;;20.55;65.97;98665.44;4447811;32;34401;-83
2023/10/21 08:44:46;;;;;;;0.00;0.00;;;;;;;20.87;64.68;98638.81;4470046;32;34826;-82
2023/10/21 08:47:18;;;;;;;0.20;0.20;;;;;;;20.73;65.28;98643.94;4448432;32;33126;-83
2023/10/21 08:49:46;;;;;;;0.00;0.00;;;;;;;20.87;64.83;98641.50;4449700;32;32656;-82
2023/10/21 08:52:16;;;;;;;0.10;0.10;;;;;;;20.71;65.42;98650.31;4469658;32;32329;-83
2023/10/21 08:54:57;;;;;;;0.03;0.03;;;;;;;20.74;65.47;98659.03;4449033;32;33059;-82
2023/10/21 08:57:25;;;;;;;3.40;0.28;;;;;;;20.85;64.86;98659.59;4472494;32;33876;-82
2023/10/21 08:59:53;;;;;;;0.00;0.00;;;;;;;20.60;65.63;98663.12;4476136;32;32531;-83
2023/10/21 09:02:21;;;;;;;1.55;0.20;;;;;;;20.68;65.32;98669.38;4458339;32;34095;-83
2023/10/21 09:04:49;;;;;;;1.55;0.10;;;;;;;20.66;65.53;98684.81;4458762;32;35067;-82
2023/10/21 09:07:17;;;;;;;0.85;0.47;;;;;;;20.80;64.85;98695.97;4457510;32;32640;-83
2023/10/21 09:09:45;;;;;;;0.55;0.35;;;;;;;20.65;65.72;98696.56;4469800;32;33545;-83
2023/10/21 09:12:18;;;;;;;0.30;0.20;;;;;;;20.70;65.17;98686.19;4460221;32;34150;-82
2023/10/21 09:14:59;;;;;;;9.75;0.37;;;;;;;20.67;65.58;98691.84;4459960;32;33542;-82
2023/10/21 09:17:45;;;;;;;0.22;0.22;;;;;;;20.62;65.41;98704.06;4471188;32;33977;-83
2023/10/21 09:20:18;;;;;;;0.43;0.43;;;;;;;20.47;65.91;98722.56;4471573;32;33485;-82
2023/10/21 09:22:49;;;;;;;9.10;1.27;;;;;;;20.16;67.37;98722.09;4475066;32;32623;-83
2023/10/21 09:25:19;;;;;;;0.25;0.08;;;;;;;20.25;66.80;98728.37;4469674;32;33506;-82
2023/10/21 09:27:58;;;;;;;1.40;0.60;;;;;;;20.33;67.13;98729.28;4467015;32;33069;-82
2023/10/21 09:30:27;;;;;;;0.00;0.00;;;;;;;20.09;68.52;98724.56;4460907;32;31416;-82
2023/10/21 09:33:04;;;;;;;0.28;0.28;;;;;;;20.07;68.89;98704.25;4459640;32;31671;-83
2023/10/21 09:35:35;;;;;;;0.00;0.00;;;;;;;20.14;68.29;98697.31;4471250;32;32800;-83
2023/10/21 09:38:35;;;;;;;0.88;0.57;;;;;;;20.25;68.66;98698.88;4445240;32;33254;-82
2023/10/21 09:41:07;;;;;;;0.10;0.08;;;;;;;20.17;68.68;98700.50;4443393;32;33502;-82
2023/10/21 09:43:37;;;;;;;0.30;0.22;;;;;;;20.17;68.97;98707.69;4432655;32;33575;-82
2023/10/21 09:46:10;;;;;;;1.75;0.80;;;;;;;20.51;67.89;98706.97;4434963;32;33267;-82
2023/10/21 09:48:48;;;;;;;0.10;0.10;;;;;;;20.63;67.48;98705.75;4456652;32;32958;-82
2023/10/21 09:51:30;;;;;;;0.37;0.25;;;;;;;20.77;66.78;98701.62;4427462;32;31945;-82
2023/10/21 09:54:00;;;;;;;0.90;0.90;;;;;;;20.54;67.29;98691.44;4443447;32;33812;-83
2023/10/21 09:56:30;;;;;;;0.47;0.47;;;;;;;20.42;67.50;98698.88;4440383;32;32613;-83
2023/10/21 09:58:59;;;;;;;0.43;0.43;;;;;;;20.67;66.65;98699.91;4447013;32;33597;-83
2023/10/21 10:01:39;;;;;;;0.15;0.10;;;;;;;20.52;67.08;98714.88;4431217;32;32649;-82
2023/10/21 10:04:13;;;;;;;0.32;0.17;;;;;;;20.65;66.09;98709.09;4431214;32;33606;-82
2023/10/21 10:06:41;;;;;;;0.55;0.55;;;;;;;20.78;65.96;98714.03;4446187;32;33738;-82
2023/10/21 10:09:12;;;;;;;0.65;0.43;;;;;;;20.68;66.34;98715.00;4444745;32;34471;-82
2023/10/21 10:11:42;;;;;;;0.65;0.45;;;;;;;20.60;66.94;98704.19;4445365;32;33256;-82
2023/10/21 10:14:11;;;;;;;0.90;0.45;;;;;;;20.84;65.95;98699.97;4443987;32;33526;-83
2023/10/21 10:16:45;;;;;;;0.20;0.20;;;;;;;20.69;66.73;98695.19;4446316;32;33281;-83
2023/10/21 10:19:16;;;;;;;1.42;0.25;;;;;;;20.84;66.12;98686.56;4446969;32;34431;-83
2023/10/21 10:21:45;;;;;;;0.25;0.10;;;;;;;21.16;65.09;98670.62;4473601;32;32882;-82
2023/10/21 10:24:12;;;;;;;0.20;0.20;;;;;;;21.39;64.35;98653.97;4462321;32;33650;-83
2023/10/21 10:26:42;;;;;;;1.17;1.02;;;;;;;21.43;64.05;98663.38;4470939;32;33192;-82
2023/10/21 10:29:25;;;;;;;0.47;0.37;;;;;;;21.60;63.44;98673.16;4468475;32;33620;-83
2023/10/21 10:32:14;;;;;;;0.35;0.35;;;;;;;21.51;63.83;98662.53;4450520;32;31071;-82
2023/10/21 10:34:56;;;;;;;0.55;0.13;;;;;;;21.60;63.49;98666.94;4470852;32;34537;-83
2023/10/21 10:37:32;;;;;;;0.00;0.00;;;;;;;21.59;63.17;98649.97;4462551;32;33661;-83
2023/10/21 10:40:06;;;;;;;1.40;0.68;;;;;;;21.50;63.48;98650.97;4456798;32;33302;-83
2023/10/21 10:42:35;;;;;;;14.02;0.30;;;;;;;21.44;63.75;98648.94;4469726;32;34459;-82
2023/10/21 10:45:03;;;;;;;0.30;0.30;;;;;;;21.27;64.38;98639.13;4472934;32;33927;-82
2023/10/21 10:47:31;;;;;;;0.70;0.60;;;;;;;21.28;64.25;98635.44;4459158;32;33530;-83
2023/10/21 10:50:00;;;;;;;0.57;0.22;;;;;;;21.44;64.41;98655.16;4445520;32;33746;-82
2023/10/21 10:52:31;;;;;;;1.98;0.90;;;;;;;21.33;64.56;98670.75;4459004;32;31943;-82
2023/10/21 10:54:59;;;;;;;0.47;0.47;;;;;;;21.55;63.85;98675.47;4474729;32;34106;-82
2023/10/21 10:57:28;;;;;;;0.73;0.73;;;;;;;21.50;63.91;98661.69;4459040;32;33716;-82
2023/10/21 10:59:56;;;;;;;0.00;0.00;;;;;;;21.51;63.84;98674.16;4458533;32;34239;-82
2023/10/21 11:02:28;;;;;;;0.00;0.00;;;;;;;21.57;63.78;98684.22;4459575;31;32227;-83
2023/10/21 11:04:59;;;;;;;1.52;1.25;;;;;;;21.69;63.55;98674.84;4444841;32;34177;-82
2023/10/21 11:07:30;;;;;;;7.43;1.12;;;;;;;21.59;63.91;98671.47;4468883;32;33886;-82
2023/10/21 11:10:00;;;;;;;0.22;0.22;;;;;;;21.44;64.39;98678.47;4457809;32;34096;-83
2023/10/21 11:12:28;;;;;;;1.98;1.00;;;;;;;21.43;64.49;98682.19;4447565;32;32380;-83
2023/10/21 11:15:00;;;;;;;0.37;0.37;;;;;;;21.78;63.80;98690.97;4462124;32;33783;-83
2023/10/21 11:18:03;;;;;;;0.35;0.35;;;;;;;21.95;63.07;98698.06;4462897;32;35516;-83
2023/10/21 11:20:31;;;;;;;0.55;0.50;;;;;;;21.57;64.25;98711.09;4460406;32;34072;-83
2023/10/21 11:23:10;;;;;;;0.45;0.25;;;;;;;21.91;63.34;98707.47;4447920;32;33763;-82
2023/10/21 11:25:40;;;;;;;0.52;0.28;;;;;;;22.03;63.06;98694.53;4471143;32;32938;-83
2023/10/21 11:28:08;;;;;;;1.05;0.73;;;;;;;21.57;64.10;98691.44;4461926;32;33362;-82
2023/10/21 11:30:35;;;;;;;0.35;0.35;;;;;;;21.91;63.31;98702.09;4458733;32;34420;-82
2023/10/21 11:33:10;;;;;;;3.50;2.25;;;;;;;21.78;64.08;98715.16;4453884;32;33520;-83
2023/10/21 11:35:44;;;;;;;4.07;1.42;;;;;;;21.92;63.33;98719.87;4446994;32;32802;-82
2023/10/21 11:38:13;;;;;;;0.30;0.30;;;;;;;21.66;63.19;98728.06;4471964;32;34386;-82
2023/10/21 11:40:41;;;;;;;0.50;0.40;;;;;;;21.62;63.30;98724.88;4456076;32;34063;-82
2023/10/21 11:43:13;;;;;;;3.53;1.75;;;;;;;21.84;62.65;98727.94;4458319;32;33717;-82
2023/10/21 11:45:41;;;;;;;1.45;0.35;;;;;;;21.63;62.62;98736.44;4457103;32;33704;-82